createdAt,value
2023-05-21T00:02:14.950Z,101073.35
2023-05-21T00:04:45.276Z,101072.44
2023-05-21T00:07:15.635Z,101068.33
2023-05-21T00:09:45.180Z,101067.42
2023-05-21T00:12:14.841Z,101066.77
2023-05-21T00:14:44.808Z,101064.34
2023-05-21T00:17:16.405Z,101061.89
2023-05-21T00:19:46.379Z,101063.11
2023-05-21T00:22:16.007Z,101068.15
2023-05-21T00:24:47.822Z,101063.82
2023-05-21T00:27:16.759Z,101061.30
2023-05-21T00:29:46.727Z,101062.91
2023-05-21T00:32:17.009Z,101059.02
2023-05-21T00:35:12.191Z,101061.27
2023-05-21T00:37:41.496Z,101058.52
2023-05-21T00:40:12.381Z,101060.63
2023-05-21T00:42:42.704Z,101062.98
2023-05-21T00:45:15.259Z,101062.39
2023-05-21T00:47:46.256Z,101064.95
2023-05-21T00:50:16.720Z,101064.90
2023-05-21T00:52:47.426Z,101064.11
2023-05-21T00:55:17.863Z,101059.64
2023-05-21T00:57:49.872Z,101062.06
2023-05-21T01:00:20.811Z,101057.43
2023-05-21T01:02:50.419Z,101055.28
2023-05-21T01:05:22.460Z,101052.40
2023-05-21T01:07:52.250Z,101047.71
2023-05-21T01:10:22.530Z,101048.21
2023-05-21T01:12:53.029Z,101044.67
2023-05-21T01:15:24.264Z,101040.95
2023-05-21T01:17:54.954Z,101039.30
2023-05-21T01:20:25.395Z,101039.29
2023-05-21T01:22:55.571Z,101042.40
2023-05-21T01:25:27.466Z,101044.31
2023-05-21T01:27:56.808Z,101042.45
2023-05-21T01:30:26.488Z,101048.55
2023-05-21T01:33:00.940Z,101044.61
2023-05-21T01:35:35.513Z,101044.02
2023-05-21T01:38:23.898Z,101040.61
2023-05-21T01:40:59.050Z,101045.23
2023-05-21T01:43:31.587Z,101044.35
2023-05-21T01:46:01.003Z,101042.35
2023-05-21T01:48:31.426Z,101045.48
2023-05-21T01:51:02.529Z,101042.45
2023-05-21T01:53:32.095Z,101046.64
2023-05-21T01:56:03.226Z,101045.21
2023-05-21T01:58:33.851Z,101045.79
2023-05-21T02:01:05.447Z,101043.86
2023-05-21T02:03:35.828Z,101044.19
2023-05-21T02:06:08.393Z,101044.65
2023-05-21T02:08:39.376Z,101039.67
2023-05-21T02:11:09.823Z,101041.75
2023-05-21T02:13:42.915Z,101040.30
2023-05-21T02:16:15.073Z,101039.25
2023-05-21T02:18:51.699Z,101042.45
2023-05-21T02:21:22.737Z,101040.28
2023-05-21T02:23:53.167Z,101036.05
2023-05-21T02:26:23.133Z,101041.41
2023-05-21T02:28:53.296Z,101032.02
2023-05-21T02:31:24.390Z,101031.41
2023-05-21T02:33:54.298Z,101030.48
2023-05-21T02:36:25.622Z,101030.56
2023-05-21T02:38:55.455Z,101031.85
2023-05-21T02:41:24.331Z,101033.48
2023-05-21T02:43:55.014Z,101037.06
2023-05-21T02:46:26.357Z,101033.77
2023-05-21T02:48:56.305Z,101035.44
2023-05-21T02:51:28.432Z,101031.56
2023-05-21T02:53:58.225Z,101031.40
2023-05-21T02:56:28.584Z,101031.64
2023-05-21T02:58:59.201Z,101031.48
2023-05-21T03:01:28.364Z,101026.90
2023-05-21T03:03:59.601Z,101020.56
2023-05-21T03:06:30.269Z,101022.77
2023-05-21T03:08:59.869Z,101024.23
2023-05-21T03:11:29.302Z,101022.60
2023-05-21T03:13:58.150Z,101021.18
2023-05-21T03:16:27.044Z,101018.06
2023-05-21T03:18:57.428Z,101017.71
2023-05-21T03:21:30.455Z,101021.19
2023-05-21T03:24:00.189Z,101019.16
2023-05-21T03:26:31.398Z,101024.27
2023-05-21T03:29:01.874Z,101027.45
2023-05-21T03:31:32.649Z,101024.71
2023-05-21T03:34:12.705Z,101022.76
2023-05-21T03:36:43.699Z,101026.36
2023-05-21T03:39:14.016Z,101027.95
2023-05-21T03:41:45.813Z,101025.27
2023-05-21T03:44:22.903Z,101022.42
2023-05-21T03:46:59.635Z,101026.52
2023-05-21T03:49:31.205Z,101025.17
2023-05-21T03:52:02.239Z,101024.61
2023-05-21T03:54:31.304Z,101023.17
2023-05-21T03:57:04.630Z,101023.84
2023-05-21T03:59:35.114Z,101020.02
2023-05-21T04:02:04.607Z,101023.94
2023-05-21T04:04:35.625Z,101027.18
2023-05-21T04:07:05.196Z,101022.44
2023-05-21T04:09:36.598Z,101024.98
2023-05-21T04:12:06.513Z,101027.60
2023-05-21T04:14:38.813Z,101022.56
2023-05-21T04:17:09.419Z,101023.02
2023-05-21T04:19:40.401Z,101022.55
2023-05-21T04:22:10.633Z,101025.08
2023-05-21T04:24:40.638Z,101027.39
2023-05-21T04:27:22.595Z,101025.84
2023-05-21T04:29:51.710Z,101025.60
2023-05-21T04:32:20.760Z,101027.45
2023-05-21T04:34:54.604Z,101025.10
2023-05-21T04:37:28.376Z,101024.13
2023-05-21T04:39:59.124Z,101019.79
2023-05-21T04:42:30.366Z,101019.36
2023-05-21T04:45:01.466Z,101015.35
2023-05-21T04:47:30.853Z,101021.04
2023-05-21T04:50:01.415Z,101017.42
2023-05-21T04:52:31.214Z,101021.48
2023-05-21T04:55:02.196Z,101013.91
2023-05-21T04:57:31.350Z,101014.98
2023-05-21T05:00:06.593Z,101011.05
2023-05-21T05:02:44.022Z,101012.52
2023-05-21T05:05:14.911Z,101007.92
2023-05-21T05:07:44.532Z,101001.83
2023-05-21T05:10:13.476Z,101002.94
2023-05-21T05:12:43.008Z,101002.48
2023-05-21T05:15:12.225Z,101001.89
2023-05-21T05:17:41.868Z,100998.98
2023-05-21T05:20:12.069Z,100999.55
2023-05-21T05:22:41.328Z,101006.11
2023-05-21T05:25:11.176Z,101007.61
2023-05-21T05:27:41.929Z,101004.48
2023-05-21T05:30:12.009Z,100999.81
2023-05-21T05:32:42.072Z,101000.17
2023-05-21T05:35:37.028Z,100992.58
2023-05-21T05:38:09.371Z,100998.89
2023-05-21T05:40:40.327Z,100999.44
2023-05-21T05:43:11.207Z,100996.42
2023-05-21T05:45:41.554Z,100995.89
2023-05-21T05:48:15.171Z,100997.13
2023-05-21T05:50:47.261Z,101001.12
2023-05-21T05:53:18.657Z,100996.79
2023-05-21T05:55:49.055Z,100997.88
2023-05-21T05:58:18.135Z,100995.52
2023-05-21T06:00:53.019Z,101000.77
2023-05-21T06:03:23.155Z,100990.02
2023-05-21T06:05:55.284Z,100991.18
2023-05-21T06:08:26.217Z,100988.46
2023-05-21T06:10:55.891Z,100989.48
2023-05-21T06:13:27.441Z,100991.45
2023-05-21T06:15:56.959Z,100992.70
2023-05-21T06:18:27.311Z,100996.00
2023-05-21T06:20:56.543Z,100994.63
2023-05-21T06:23:27.246Z,100994.08
2023-05-21T06:25:57.539Z,100992.52
2023-05-21T06:28:29.281Z,100995.77
2023-05-21T06:31:02.320Z,100994.21
2023-05-21T06:33:57.768Z,100994.91
2023-05-21T06:36:30.354Z,100993.23
2023-05-21T06:39:01.086Z,100995.01
2023-05-21T06:41:31.046Z,100990.85
2023-05-21T06:44:05.824Z,100992.41
2023-05-21T06:47:04.549Z,100991.59
2023-05-21T06:49:35.558Z,100987.73
2023-05-21T06:52:05.478Z,100985.77
2023-05-21T06:54:35.589Z,100983.46
2023-05-21T06:57:07.220Z,100983.36
2023-05-21T06:59:36.268Z,100980.50
2023-05-21T07:02:05.940Z,100979.94
2023-05-21T07:04:37.353Z,100981.95
2023-05-21T07:07:07.516Z,100980.92
2023-05-21T07:09:37.618Z,100981.33
2023-05-21T07:12:07.626Z,100981.77
2023-05-21T07:14:36.746Z,100981.44
2023-05-21T07:17:07.219Z,100982.80
2023-05-21T07:19:37.835Z,100983.89
2023-05-21T07:22:08.508Z,100983.10
2023-05-21T07:24:37.993Z,100982.91
2023-05-21T07:27:17.816Z,100982.92
2023-05-21T07:29:56.480Z,100977.09
2023-05-21T07:32:27.186Z,100979.27
2023-05-21T07:35:04.441Z,100976.06
2023-05-21T07:37:33.513Z,100966.02
2023-05-21T07:40:02.326Z,100964.02
2023-05-21T07:42:32.182Z,100961.84
2023-05-21T07:45:02.541Z,100959.44
2023-05-21T07:47:34.078Z,100960.64
2023-05-21T07:50:04.675Z,100963.33
2023-05-21T07:52:33.791Z,100958.73
2023-05-21T07:55:05.725Z,100956.96
2023-05-21T07:57:37.531Z,100956.70
2023-05-21T08:00:13.457Z,100956.52
2023-05-21T08:02:45.302Z,100957.75
2023-05-21T08:05:17.270Z,100956.55
2023-05-21T08:07:46.794Z,100956.08
2023-05-21T08:10:19.218Z,100956.42
2023-05-21T08:12:48.944Z,100960.39
2023-05-21T08:15:17.989Z,100958.27
2023-05-21T08:17:49.424Z,100954.44
2023-05-21T08:20:20.827Z,100955.33
2023-05-21T08:22:50.639Z,100948.91
2023-05-21T08:25:22.319Z,100946.58
2023-05-21T08:27:54.423Z,100942.41
2023-05-21T08:30:25.079Z,100944.88
2023-05-21T08:32:55.457Z,100941.17
2023-05-21T08:35:25.928Z,100935.38
2023-05-21T08:37:59.925Z,100935.98
2023-05-21T08:40:41.900Z,100934.34
2023-05-21T08:43:14.233Z,100927.02
2023-05-21T08:45:46.737Z,100931.69
2023-05-21T08:48:17.867Z,100928.29
2023-05-21T08:50:47.532Z,100935.98
2023-05-21T08:53:27.951Z,100930.85
2023-05-21T08:56:00.173Z,100933.41
2023-05-21T08:58:45.570Z,100941.21
2023-05-21T09:01:15.487Z,100935.50
2023-05-21T09:03:47.409Z,100932.89
2023-05-21T09:06:16.503Z,100934.21
2023-05-21T09:08:50.793Z,100938.25
2023-05-21T09:11:26.797Z,100932.58
2023-05-21T09:13:58.851Z,100930.89
2023-05-21T09:16:57.640Z,100938.77
2023-05-21T09:19:30.498Z,100929.39
2023-05-21T09:22:05.766Z,100928.59
2023-05-21T09:24:36.548Z,100924.60
2023-05-21T09:27:08.206Z,100932.43
2023-05-21T09:29:38.133Z,100927.36
2023-05-21T09:32:09.685Z,100915.77
2023-05-21T09:34:45.034Z,100925.56
2023-05-21T09:37:26.633Z,100921.80
2023-05-21T09:39:56.848Z,100923.71
2023-05-21T09:42:30.337Z,100913.67
2023-05-21T09:45:01.369Z,100917.92
2023-05-21T09:47:32.714Z,100914.21
2023-05-21T09:50:02.844Z,100912.42
2023-05-21T09:52:32.501Z,100915.46
2023-05-21T10:00:48.497Z,100911.95
2023-05-21T10:03:17.642Z,100914.11
2023-05-21T10:05:47.136Z,100909.02
2023-05-21T10:08:17.049Z,100908.33
2023-05-21T10:10:49.065Z,100907.14
2023-05-21T10:13:22.547Z,100909.96
2023-05-21T10:15:56.016Z,100906.66
2023-05-21T10:18:25.941Z,100905.13
2023-05-21T10:20:57.589Z,100907.95
2023-05-21T10:23:27.651Z,100907.13
2023-05-21T10:25:58.199Z,100904.91
2023-05-21T10:28:28.752Z,100902.75
2023-05-21T10:30:58.358Z,100902.99
2023-05-21T10:34:22.542Z,100899.33
2023-05-21T10:36:53.052Z,100896.44
2023-05-21T10:39:22.709Z,100897.50
2023-05-21T10:42:06.465Z,100889.14
2023-05-21T10:44:50.107Z,100889.02
2023-05-21T10:47:36.929Z,100886.27
2023-05-21T10:50:31.450Z,100890.75
2023-05-21T10:53:18.649Z,100883.11
2023-05-21T10:55:56.812Z,100872.77
2023-05-21T10:58:29.878Z,100862.80
2023-05-21T11:01:02.503Z,100879.30
2023-05-21T11:03:36.495Z,100876.23
2023-05-21T11:06:09.608Z,100868.10
2023-05-21T11:08:39.976Z,100863.15
2023-05-21T11:11:11.372Z,100869.05
2023-05-21T11:13:52.129Z,100867.15
2023-05-21T11:16:25.935Z,100861.80
2023-05-21T11:18:55.584Z,100865.13
2023-05-21T11:21:28.873Z,100864.91
2023-05-21T11:24:02.983Z,100865.08
2023-05-21T11:26:53.025Z,100865.64
2023-05-21T11:29:32.222Z,100865.02
2023-05-21T11:32:06.156Z,100858.42
2023-05-21T11:35:30.581Z,100861.89
2023-05-21T11:37:59.480Z,100858.54
2023-05-21T11:40:30.914Z,100858.00
2023-05-21T11:43:02.484Z,100852.61
2023-05-21T11:45:34.978Z,100850.77
2023-05-21T11:48:05.672Z,100853.14
2023-05-21T11:50:38.034Z,100849.14
2023-05-21T11:53:09.443Z,100846.75
2023-05-21T11:55:40.529Z,100848.36
2023-05-21T11:58:12.043Z,100846.59
2023-05-21T12:00:42.721Z,100845.73
2023-05-21T12:03:14.744Z,100839.65
2023-05-21T12:05:52.276Z,100847.02
2023-05-21T12:08:27.415Z,100840.59
2023-05-21T12:11:00.211Z,100826.15
2023-05-21T12:13:31.117Z,100837.15
2023-05-21T12:16:05.155Z,100840.46
2023-05-21T12:18:37.181Z,100841.77
2023-05-21T12:21:07.628Z,100839.83
2023-05-21T12:23:37.837Z,100840.41
2023-05-21T12:26:08.857Z,100837.19
2023-05-21T12:28:38.841Z,100834.29
2023-05-21T12:31:09.058Z,100836.39
2023-05-21T12:33:41.282Z,100836.27
2023-05-21T12:36:11.821Z,100828.52
2023-05-21T12:38:42.171Z,100823.32
2023-05-21T12:41:11.468Z,100821.84
2023-05-21T12:43:40.297Z,100819.17
2023-05-21T12:46:12.547Z,100815.08
2023-05-21T12:48:43.664Z,100819.42
2023-05-21T12:51:12.968Z,100819.05
2023-05-21T12:53:43.074Z,100812.07
2023-05-21T12:56:12.714Z,100816.73
2023-05-21T12:58:42.817Z,100815.14
2023-05-21T13:01:12.310Z,100812.12
2023-05-21T13:03:42.382Z,100804.80
2023-05-21T13:06:12.232Z,100802.98
2023-05-21T13:08:42.916Z,100802.13
2023-05-21T13:11:11.931Z,100794.61
2023-05-21T13:13:42.373Z,100797.69
2023-05-21T13:16:12.452Z,100798.80
2023-05-21T13:18:43.240Z,100802.34
2023-05-21T13:21:13.485Z,100803.17
2023-05-21T13:23:44.064Z,100796.73
2023-05-21T13:26:14.474Z,100792.10
2023-05-21T13:28:44.908Z,100792.65
2023-05-21T13:31:16.178Z,100791.69
2023-05-21T13:33:49.211Z,100789.08
2023-05-21T13:36:18.332Z,100782.35
2023-05-21T13:38:48.435Z,100786.73
2023-05-21T13:41:17.844Z,100784.96
2023-05-21T13:43:47.641Z,100780.77
2023-05-21T13:46:17.996Z,100778.95
2023-05-21T13:48:46.914Z,100780.39
2023-05-21T13:51:30.857Z,100779.59
2023-05-21T13:54:06.668Z,100778.16
2023-05-21T13:56:36.632Z,100778.60
2023-05-21T13:59:06.192Z,100773.41
2023-05-21T14:01:36.564Z,100773.05
2023-05-21T14:04:07.532Z,100769.05
2023-05-21T14:06:38.008Z,100773.42
2023-05-21T14:09:08.075Z,100771.10
2023-05-21T14:11:39.722Z,100768.87
2023-05-21T14:14:10.914Z,100768.48
2023-05-21T14:16:43.239Z,100768.14
2023-05-21T14:19:12.938Z,100767.45
2023-05-21T14:21:44.716Z,100754.64
2023-05-21T14:24:15.067Z,100757.02
2023-05-21T14:26:44.909Z,100757.72
2023-05-21T14:29:16.096Z,100745.47
2023-05-21T14:31:48.996Z,100760.33
2023-05-21T14:34:20.518Z,100757.02
2023-05-21T14:36:50.547Z,100754.96
2023-05-21T14:39:20.289Z,100759.21
2023-05-21T14:41:50.838Z,100753.17
2023-05-21T14:44:21.123Z,100757.11
2023-05-21T14:46:52.073Z,100759.91
2023-05-21T14:49:23.757Z,100753.38
2023-05-21T14:51:53.629Z,100750.16
2023-05-21T14:54:25.131Z,100748.38
2023-05-21T14:56:54.666Z,100747.15
2023-05-21T14:59:25.387Z,100749.92
2023-05-21T15:01:55.753Z,100744.86
2023-05-21T15:04:25.185Z,100746.72
2023-05-21T15:06:54.117Z,100747.34
2023-05-21T15:09:24.511Z,100743.54
2023-05-21T15:11:55.592Z,100740.19
2023-05-21T15:14:25.614Z,100743.11
2023-05-21T15:16:56.411Z,100738.56
2023-05-21T15:19:25.415Z,100740.75
2023-05-21T15:21:57.709Z,100746.50
2023-05-21T15:24:27.380Z,100743.86
2023-05-21T15:26:56.725Z,100744.52
2023-05-21T15:29:26.048Z,100744.13
2023-05-21T15:31:56.213Z,100739.66
2023-05-21T15:34:29.395Z,100738.38
2023-05-21T15:37:01.510Z,100731.44
2023-05-21T15:39:30.781Z,100730.77
2023-05-21T15:42:01.693Z,100735.06
2023-05-21T15:44:31.844Z,100731.18
2023-05-21T15:47:01.326Z,100731.88
2023-05-21T15:49:31.487Z,100727.56
2023-05-21T15:52:01.893Z,100729.78
2023-05-21T15:54:33.176Z,100727.53
2023-05-21T15:57:02.097Z,100728.86
2023-05-21T15:59:31.588Z,100723.41
2023-05-21T16:02:01.566Z,100717.46
2023-05-21T16:04:33.352Z,100715.50
2023-05-21T16:07:02.358Z,100713.77
2023-05-21T16:09:32.824Z,100710.96
2023-05-21T16:12:01.994Z,100718.36
2023-05-21T16:14:33.715Z,100712.02
2023-05-21T16:17:04.610Z,100712.52
2023-05-21T16:19:36.027Z,100710.45
2023-05-21T16:22:05.965Z,100708.59
2023-05-21T16:24:37.684Z,100706.39
2023-05-21T16:27:08.204Z,100706.09
2023-05-21T16:29:40.872Z,100703.30
2023-05-21T16:32:11.024Z,100698.15
2023-05-21T16:34:42.732Z,100697.63
2023-05-21T16:37:11.818Z,100705.48
2023-05-21T16:39:41.368Z,100702.73
2023-05-21T16:42:11.813Z,100706.14
2023-05-21T16:44:42.880Z,100703.16
2023-05-21T16:47:13.587Z,100694.70
2023-05-21T16:49:43.743Z,100695.79
2023-05-21T16:52:15.720Z,100692.77
2023-05-21T16:54:49.089Z,100693.16
2023-05-21T16:57:18.178Z,100692.67
2023-05-21T16:59:47.282Z,100691.30
2023-05-21T17:02:17.001Z,100690.14
2023-05-21T17:04:46.920Z,100693.27
2023-05-21T17:07:16.650Z,100691.34
2023-05-21T17:09:46.909Z,100697.95
2023-05-21T17:12:17.802Z,100696.34
2023-05-21T17:14:48.410Z,100700.59
2023-05-21T17:17:17.848Z,100702.43
2023-05-21T17:19:47.949Z,100699.19
2023-05-21T17:22:16.808Z,100703.63
2023-05-21T17:24:46.314Z,100701.39
2023-05-21T17:27:15.589Z,100696.94
2023-05-21T17:29:44.434Z,100696.46
2023-05-21T17:32:13.417Z,100696.52
2023-05-21T17:38:25.220Z,100695.60
2023-05-21T17:40:54.333Z,100691.08
2023-05-21T17:43:24.492Z,100694.73
2023-05-21T17:45:58.772Z,100698.70
2023-05-21T17:48:28.744Z,100695.79
2023-05-21T17:50:58.072Z,100694.00
2023-05-21T17:53:30.086Z,100700.22
2023-05-21T17:55:59.436Z,100702.66
2023-05-21T17:58:29.202Z,100703.70
2023-05-21T18:01:02.751Z,100701.09
2023-05-21T18:03:37.252Z,100704.10
2023-05-21T18:06:11.275Z,100701.41
2023-05-21T18:08:43.736Z,100700.66
2023-05-21T18:11:17.135Z,100702.34
2023-05-21T18:13:47.791Z,100702.80
2023-05-21T18:16:17.844Z,100705.46
2023-05-21T18:18:47.834Z,100707.34
2023-05-21T18:21:20.893Z,100709.70
2023-05-21T18:23:52.516Z,100710.59
2023-05-21T18:26:35.600Z,100712.92
2023-05-21T18:29:09.682Z,100714.32
2023-05-21T18:31:39.580Z,100710.50
2023-05-21T18:34:10.602Z,100713.54
2023-05-21T18:36:41.456Z,100718.83
2023-05-21T18:39:10.952Z,100718.20
2023-05-21T18:41:42.585Z,100720.14
2023-05-21T18:44:14.099Z,100721.69
2023-05-21T18:46:44.854Z,100728.16
2023-05-21T18:49:14.991Z,100726.86
2023-05-21T18:51:45.788Z,100728.52
2023-05-21T18:54:14.922Z,100728.48
2023-05-21T18:56:45.309Z,100733.73
2023-05-21T18:59:15.646Z,100732.81
2023-05-21T19:01:45.274Z,100731.11
2023-05-21T19:04:16.464Z,100731.79
2023-05-21T19:06:46.272Z,100737.44
2023-05-21T19:09:15.141Z,100737.23
2023-05-21T19:11:44.101Z,100740.17
2023-05-21T19:14:15.125Z,100744.77
2023-05-21T19:16:45.708Z,100743.48
2023-05-21T19:19:16.879Z,100747.02
2023-05-21T19:21:46.656Z,100750.73
2023-05-21T19:24:20.551Z,100743.66
2023-05-21T19:26:49.582Z,100744.45
2023-05-21T19:29:19.337Z,100747.11
2023-05-21T19:31:48.881Z,100743.08
2023-05-21T19:34:21.186Z,100744.35
2023-05-21T19:36:53.690Z,100740.83
2023-05-21T19:39:23.511Z,100736.56
2023-05-21T19:41:53.421Z,100739.27
2023-05-21T19:44:24.006Z,100733.36
2023-05-21T19:46:55.110Z,100732.60
2023-05-21T19:49:24.235Z,100734.55
2023-05-21T19:51:55.191Z,100734.05
2023-05-21T19:54:25.670Z,100731.84
2023-05-21T19:56:54.433Z,100730.27
2023-05-21T19:59:25.381Z,100727.68
2023-05-21T20:01:56.151Z,100726.66
2023-05-21T20:04:27.941Z,100724.59
2023-05-21T20:06:58.601Z,100726.91
2023-05-21T20:09:27.497Z,100722.08
2023-05-21T20:11:57.116Z,100723.95
2023-05-21T20:14:30.572Z,100723.36
2023-05-21T20:17:03.527Z,100722.45
2023-05-21T20:19:33.043Z,100716.59
2023-05-21T20:22:02.965Z,100719.78
2023-05-21T20:24:34.332Z,100718.82
2023-05-21T20:27:06.350Z,100722.48
2023-05-21T20:29:35.228Z,100727.30
2023-05-21T20:32:04.263Z,100725.96
2023-05-21T20:34:36.218Z,100728.89
2023-05-21T20:37:07.698Z,100734.16
2023-05-21T20:39:38.543Z,100734.36
2023-05-21T20:42:11.083Z,100737.98
2023-05-21T20:44:40.127Z,100739.84
2023-05-21T20:47:10.629Z,100741.02
2023-05-21T20:49:40.884Z,100742.65
2023-05-21T20:52:09.653Z,100742.52
2023-05-21T20:54:38.304Z,100743.26
2023-05-21T20:57:09.481Z,100738.11
2023-05-21T20:59:38.846Z,100744.11
2023-05-21T21:02:12.905Z,100739.98
2023-05-21T21:04:44.197Z,100742.45
2023-05-21T21:07:13.515Z,100742.21
2023-05-21T21:09:45.829Z,100745.55
2023-05-21T21:14:51.732Z,100745.14
2023-05-21T21:17:23.030Z,100742.80
2023-05-21T21:19:51.962Z,100741.02
2023-05-21T21:22:22.592Z,100736.98
2023-05-21T21:24:54.561Z,100747.05
2023-05-21T21:27:24.288Z,100748.55
2023-05-21T21:29:53.458Z,100752.20
2023-05-21T21:32:23.876Z,100751.89
2023-05-21T21:34:57.559Z,100747.20
2023-05-21T21:37:26.320Z,100750.79
2023-05-21T21:39:55.292Z,100747.50
2023-05-21T21:42:26.552Z,100742.39
2023-05-21T21:44:55.447Z,100744.60
2023-05-21T21:47:24.282Z,100744.86
2023-05-21T21:49:56.906Z,100742.98
2023-05-21T21:52:28.044Z,100746.36
2023-05-21T21:54:58.367Z,100747.05
2023-05-21T21:57:29.901Z,100747.25
2023-05-21T21:59:59.660Z,100748.35
2023-05-21T22:02:31.492Z,100751.45
2023-05-21T22:05:01.223Z,100752.41
2023-05-21T22:07:33.094Z,100750.09
2023-05-21T22:10:01.859Z,100754.38
2023-05-21T22:12:30.601Z,100752.56
2023-05-21T22:15:05.577Z,100751.34
2023-05-21T22:17:34.917Z,100748.58
2023-05-21T22:20:06.264Z,100746.77
2023-05-21T22:22:35.862Z,100747.88
2023-05-21T22:25:06.205Z,100747.66
2023-05-21T22:27:36.772Z,100743.65
2023-05-21T22:30:07.222Z,100745.70
2023-05-21T22:32:36.333Z,100739.09
2023-05-21T22:35:09.415Z,100740.08
2023-05-21T22:37:39.276Z,100738.48
2023-05-21T22:40:10.456Z,100739.05
2023-05-21T22:42:39.380Z,100739.53
2023-05-21T22:45:09.771Z,100737.02
2023-05-21T22:47:39.930Z,100735.09
2023-05-21T22:50:11.787Z,100733.02
2023-05-21T22:52:41.345Z,100728.45
2023-05-21T22:55:12.150Z,100730.14
2023-05-21T22:57:40.893Z,100725.73
2023-05-21T23:00:13.805Z,100727.98
2023-05-21T23:02:42.648Z,100729.79
2023-05-21T23:05:11.601Z,100725.53
2023-05-21T23:07:42.355Z,100724.16
2023-05-21T23:10:13.470Z,100720.71
2023-05-21T23:12:43.127Z,100720.00
2023-05-21T23:15:14.375Z,100721.39
2023-05-21T23:17:44.173Z,100719.30
2023-05-21T23:20:16.381Z,100722.64
2023-05-21T23:22:46.355Z,100719.96
2023-05-21T23:25:15.294Z,100717.41
2023-05-21T23:27:45.311Z,100717.98
2023-05-21T23:30:14.327Z,100717.09
2023-05-21T23:32:46.815Z,100716.85
2023-05-21T23:35:16.585Z,100716.36
2023-05-21T23:37:45.763Z,100713.92
2023-05-21T23:40:14.540Z,100716.65
2023-05-21T23:42:45.968Z,100716.55
2023-05-21T23:45:15.089Z,100718.88
2023-05-21T23:47:43.970Z,100716.55
2023-05-21T23:50:15.103Z,100713.34
2023-05-21T23:52:43.882Z,100716.39
2023-05-21T23:55:16.357Z,100716.70
2023-05-21T23:57:46.583Z,100714.87
